Time;durP1;ratioP1;P1;durP2;ratioP2;P2;SDS_P1;SDS_P2;PMS_P1;PMS_P2;Temp;Humidity;BMP_temperature;BMP_pressure;BME280_temperature;BME280_humidity;BME280_pressure;Samples;Min_cycle;Max_cycle;Signal;HPM_P1;HPM_P2
2024/02/01 00:00:21;;;;;;;;;;;;;;;21.31;22.04;99175.03;5056996;28;998;-74
2024/02/01 00:02:47;;;;;;;;;;;;;;;21.47;21.73;99179.38;5057251;28;931;-75
2024/02/01 00:05:12;;;;;;;;;;;;;;;21.29;22.03;99170.97;5038807;28;982;-74
2024/02/01 00:07:38;;;;;;;;;;;;;;;21.58;21.56;99163.13;5056841;28;1046;-74
2024/02/01 00:10:03;;;;;;;;;;;;;;;21.47;21.78;99165.22;5055627;28;988;-74
2024/02/01 00:12:29;;;;;;;;;;;;;;;21.54;21.54;99151.00;5014213;28;1914;-74
2024/02/01 00:14:54;;;;;;;;;;;;;;;21.42;22.06;99152.31;4997922;28;1408;-75
2024/02/01 00:17:20;;;;;;;;;;;;;;;21.36;22.13;99153.19;5014699;28;990;-74
2024/02/01 00:19:45;;;;;;;;;;;;;;;21.25;21.90;99142.72;4998117;28;1067;-73
2024/02/01 00:22:14;;;;;;;;;;;;;;;21.38;22.12;99145.06;4981701;28;1132;-76
2024/02/01 00:24:39;;;;;;;;;;;;;;;21.32;21.96;99142.69;4997782;28;1390;-75
2024/02/01 00:27:05;;;;;;;;;;;;;;;21.42;21.77;99134.53;4997953;28;1217;-72
2024/02/01 00:29:30;;;;;;;;;;;;;;;21.54;21.61;99131.19;5014008;28;945;-73
2024/02/01 00:31:56;;;;;;;;;;;;;;;21.23;22.28;99139.47;5014432;28;1999;-72
2024/02/01 00:34:21;;;;;;;;;;;;;;;21.07;22.24;99145.66;5014442;28;1013;-73
2024/02/01 00:36:47;;;;;;;;;;;;;;;21.44;22.05;99140.56;4981842;28;1154;-73
2024/02/01 00:39:12;;;;;;;;;;;;;;;21.66;21.58;99125.03;5013887;28;943;-73
2024/02/01 00:41:38;;;;;;;;;;;;;;;21.71;21.77;99124.56;4978201;28;1011;-73
2024/02/01 00:44:04;;;;;;;;;;;;;;;21.60;21.85;99118.19;4992537;28;1034;-73
2024/02/01 00:46:29;;;;;;;;;;;;;;;21.57;21.59;99121.84;4974667;28;1015;-73
2024/02/01 00:48:54;;;;;;;;;;;;;;;21.28;22.22;99124.06;4958768;28;1214;-73
2024/02/01 00:51:20;;;;;;;;;;;;;;;21.25;22.04;99131.38;4942502;28;992;-73
2024/02/01 00:53:45;;;;;;;;;;;;;;;21.28;22.24;99119.22;4942674;28;1980;-73
2024/02/01 00:56:11;;;;;;;;;;;;;;;21.26;22.15;99124.50;4920246;29;1424;-73
2024/02/01 00:58:37;;;;;;;;;;;;;;;21.12;22.47;99121.75;4920531;29;1053;-73
2024/02/01 01:01:02;;;;;;;;;;;;;;;21.27;22.30;99126.09;4917023;29;1162;-73
2024/02/01 01:03:28;;;;;;;;;;;;;;;21.26;22.01;99126.53;4916683;29;1010;-73
2024/02/01 01:05:53;;;;;;;;;;;;;;;21.56;21.96;99118.22;4901260;29;1096;-73
2024/02/01 01:08:19;;;;;;;;;;;;;;;21.56;21.63;99117.44;4870333;29;1130;-74
2024/02/01 01:10:45;;;;;;;;;;;;;;;21.31;21.89;99112.75;4901232;29;1105;-73
2024/02/01 01:13:11;;;;;;;;;;;;;;;21.05;22.50;99119.00;4885407;29;1907;-73
2024/02/01 01:15:36;;;;;;;;;;;;;;;21.36;22.14;99124.88;4885703;29;1505;-73
2024/02/01 01:18:02;;;;;;;;;;;;;;;21.46;21.90;99113.47;4900160;29;1190;-73
2024/02/01 01:20:27;;;;;;;;;;;;;;;21.47;21.84;99114.25;4955082;29;1052;-73
2024/02/01 01:22:53;;;;;;;;;;;;;;;21.30;22.05;99124.50;4955034;29;1161;-73
2024/02/01 01:25:18;;;;;;;;;;;;;;;21.47;21.93;99111.44;4939034;29;1113;-73
2024/02/01 01:27:44;;;;;;;;;;;;;;;21.19;22.14;99116.06;4954977;29;986;-73
2024/02/01 01:30:10;;;;;;;;;;;;;;;20.98;22.20;99110.53;4955363;29;1508;-73
2024/02/01 01:32:35;;;;;;;;;;;;;;;21.30;21.97;99105.50;4985958;28;1902;-74
2024/02/01 01:35:02;;;;;;;;;;;;;;;21.52;21.83;99111.78;5033157;28;1527;-73
2024/02/01 01:37:28;;;;;;;;;;;;;;;21.50;21.83;99096.41;5000674;28;1330;-73
2024/02/01 01:39:53;;;;;;;;;;;;;;;21.40;21.96;99102.97;5032918;28;1223;-74
2024/02/01 01:42:19;;;;;;;;;;;;;;;21.19;22.17;99104.75;5016418;28;1136;-73
2024/02/01 01:44:44;;;;;;;;;;;;;;;21.41;21.85;99096.13;5016308;28;1029;-73
2024/02/01 01:47:10;;;;;;;;;;;;;;;21.22;22.09;99091.78;5033022;28;1076;-74
2024/02/01 01:49:35;;;;;;;;;;;;;;;21.24;22.10;99090.16;5020596;28;1483;-74
2024/02/01 01:52:01;;;;;;;;;;;;;;;21.08;22.41;99081.34;5054113;28;1963;-74
2024/02/01 01:54:26;;;;;;;;;;;;;;;21.17;22.24;99090.19;5054218;28;950;-74
2024/02/01 01:56:52;;;;;;;;;;;;;;;21.47;21.91;99081.09;5037664;28;956;-74
2024/02/01 01:59:17;;;;;;;;;;;;;;;21.35;22.09;99083.59;5054270;28;956;-74
2024/02/01 02:01:47;;;;;;;;;;;;;;;21.27;22.21;99077.97;5037272;28;1844;-74
2024/02/01 02:04:13;;;;;;;;;;;;;;;21.50;21.75;99073.75;5037606;28;1038;-74
2024/02/01 02:06:39;;;;;;;;;;;;;;;20.93;22.41;99075.00;5037050;28;974;-75
2024/02/01 02:09:04;;;;;;;;;;;;;;;20.87;22.46;99082.31;5054970;28;991;-75
2024/02/01 02:11:30;;;;;;;;;;;;;;;21.27;22.16;99077.19;5037262;28;936;-74
2024/02/01 02:13:55;;;;;;;;;;;;;;;21.22;22.00;99072.75;5037513;28;1986;-74
2024/02/01 02:16:22;;;;;;;;;;;;;;;21.11;22.30;99074.88;5056710;28;958;-74
2024/02/01 02:18:47;;;;;;;;;;;;;;;21.38;22.15;99065.78;5059028;28;1083;-74
2024/02/01 02:21:14;;;;;;;;;;;;;;;21.72;21.42;99057.38;5041092;28;1125;-74
2024/02/01 02:23:40;;;;;;;;;;;;;;;21.59;21.71;99055.06;5057468;28;921;-74
2024/02/01 02:26:08;;;;;;;;;;;;;;;21.15;22.07;99050.19;5054091;28;1072;-75
2024/02/01 02:28:38;;;;;;;;;;;;;;;21.12;22.13;99053.84;5037883;28;957;-74
2024/02/01 02:31:07;;;;;;;;;;;;;;;21.40;22.13;99052.00;5037139;28;1001;-74
2024/02/01 02:33:32;;;;;;;;;;;;;;;21.35;22.02;99049.63;5038591;28;1979;-74
2024/02/01 02:35:58;;;;;;;;;;;;;;;21.43;22.04;99051.19;5020920;28;1101;-74
2024/02/01 02:38:23;;;;;;;;;;;;;;;21.42;21.77;99049.59;5036985;28;947;-74
2024/02/01 02:40:49;;;;;;;;;;;;;;;21.56;21.57;99043.78;5037266;28;1037;-74
2024/02/01 02:43:15;;;;;;;;;;;;;;;21.44;21.66;99044.28;5037452;28;971;-74
2024/02/01 02:45:41;;;;;;;;;;;;;;;21.14;22.02;99045.75;5020941;28;947;-74
2024/02/01 02:48:09;;;;;;;;;;;;;;;21.25;22.09;99049.31;5020418;28;952;-75
2024/02/01 02:50:35;;;;;;;;;;;;;;;21.36;22.02;99048.44;5037285;28;991;-74
2024/02/01 02:53:00;;;;;;;;;;;;;;;21.18;22.21;99049.34;5037312;28;1910;-74
2024/02/01 02:55:26;;;;;;;;;;;;;;;21.24;22.26;99044.88;5037876;28;1550;-74
2024/02/01 02:57:51;;;;;;;;;;;;;;;21.43;21.98;99039.88;5020641;28;985;-74
2024/02/01 03:00:20;;;;;;;;;;;;;;;21.64;21.59;99039.66;5036934;28;1206;-74
2024/02/01 03:02:47;;;;;;;;;;;;;;;21.48;21.62;99047.91;5036742;28;1075;-74
2024/02/01 03:05:15;;;;;;;;;;;;;;;21.05;21.83;99008.63;4999300;28;1124;-74
2024/02/01 03:07:40;;;;;;;;;;;;;;;21.02;22.33;99043.41;5015873;28;948;-74
2024/02/01 03:10:07;;;;;;;;;;;;;;;21.38;22.09;99043.16;4983009;28;1006;-74
2024/02/01 03:12:32;;;;;;;;;;;;;;;21.35;21.86;99038.31;5015578;28;1906;-74
2024/02/01 03:14:58;;;;;;;;;;;;;;;21.53;21.77;99036.13;5015685;28;1059;-74
2024/02/01 03:17:23;;;;;;;;;;;;;;;21.54;21.54;99034.91;4998962;28;971;-75
2024/02/01 03:19:52;;;;;;;;;;;;;;;21.47;21.79;99029.31;4999150;28;1083;-74
2024/02/01 03:22:24;;;;;;;;;;;;;;;21.33;21.81;99025.38;4999607;28;1041;-74
2024/02/01 03:24:58;;;;;;;;;;;;;;;21.45;21.73;99031.75;4983756;28;1128;-74
2024/02/01 03:27:24;;;;;;;;;;;;;;;21.14;22.08;99034.44;5014635;28;1076;-74
2024/02/01 03:29:50;;;;;;;;;;;;;;;21.16;22.08;99026.31;4999061;28;1014;-75
2024/02/01 03:32:16;;;;;;;;;;;;;;;21.20;22.04;99018.63;4959782;28;1915;-74
2024/02/01 03:34:42;;;;;;;;;;;;;;;21.39;21.92;99017.22;4976336;28;1025;-74
2024/02/01 03:37:07;;;;;;;;;;;;;;;21.19;22.16;99019.84;5010431;28;984;-74
2024/02/01 03:39:33;;;;;;;;;;;;;;;21.27;22.13;99018.53;4998929;28;950;-74
2024/02/01 03:41:59;;;;;;;;;;;;;;;21.31;21.93;99010.84;5014928;28;993;-74
2024/02/01 03:44:25;;;;;;;;;;;;;;;21.41;22.10;99002.69;5015215;28;1136;-74
2024/02/01 03:46:57;;;;;;;;;;;;;;;21.38;21.82;99007.13;4998850;28;1193;-74
2024/02/01 03:49:22;;;;;;;;;;;;;;;21.41;21.83;99014.00;4982871;28;1075;-72
2024/02/01 03:51:48;;;;;;;;;;;;;;;21.67;21.43;99013.31;5015018;28;1087;-72
2024/02/01 03:54:13;;;;;;;;;;;;;;;21.27;22.10;99010.03;5015261;28;1989;-72
2024/02/01 03:56:39;;;;;;;;;;;;;;;21.07;22.18;99014.66;5015177;28;933;-72
2024/02/01 03:59:11;;;;;;;;;;;;;;;21.15;22.02;99013.41;4998184;28;1175;-71
2024/02/01 04:01:36;;;;;;;;;;;;;;;21.19;22.05;99014.19;4998785;28;1021;-72
2024/02/01 04:04:02;;;;;;;;;;;;;;;21.24;22.17;99007.25;5028822;28;940;-71
2024/02/01 04:06:28;;;;;;;;;;;;;;;21.12;22.33;99007.75;5035666;28;1149;-72
2024/02/01 04:08:54;;;;;;;;;;;;;;;21.21;22.31;99010.91;5036731;28;931;-72
2024/02/01 04:11:20;;;;;;;;;;;;;;;21.26;21.91;99008.44;5035545;28;1286;-73
2024/02/01 04:13:46;;;;;;;;;;;;;;;21.42;21.76;99001.44;5035766;28;1979;-71
2024/02/01 04:16:11;;;;;;;;;;;;;;;21.19;22.27;99000.03;5036359;28;998;-72
2024/02/01 04:18:37;;;;;;;;;;;;;;;21.07;22.28;99009.00;5036699;28;873;-71
2024/02/01 04:21:03;;;;;;;;;;;;;;;21.20;22.19;98998.81;5035207;28;997;-72
2024/02/01 04:23:31;;;;;;;;;;;;;;;21.33;21.87;99002.72;5036712;28;957;-71
2024/02/01 04:25:57;;;;;;;;;;;;;;;21.65;21.53;98995.13;5035026;28;1051;-72
2024/02/01 04:28:22;;;;;;;;;;;;;;;21.44;21.78;98993.31;5036482;28;977;-72
2024/02/01 04:30:53;;;;;;;;;;;;;;;21.36;21.85;99000.31;4997585;28;1199;-72
2024/02/01 04:33:22;;;;;;;;;;;;;;;21.29;22.18;99001.94;4998210;28;1978;-72
2024/02/01 04:35:47;;;;;;;;;;;;;;;21.53;21.81;98999.31;4998572;28;1100;-72
2024/02/01 04:38:13;;;;;;;;;;;;;;;21.54;21.83;99000.91;4997084;28;1005;-72
2024/02/01 04:40:39;;;;;;;;;;;;;;;21.55;21.92;99011.00;4981015;28;1242;-72
2024/02/01 04:43:05;;;;;;;;;;;;;;;21.27;22.15;99010.03;4981285;28;970;-72
2024/02/01 04:45:30;;;;;;;;;;;;;;;20.81;22.86;99010.44;4997606;28;1748;-71
2024/02/01 04:47:56;;;;;;;;;;;;;;;20.76;22.53;99003.19;5013726;28;1130;-72
2024/02/01 04:50:21;;;;;;;;;;;;;;;21.16;22.15;99003.69;4997336;28;948;-72
2024/02/01 04:52:47;;;;;;;;;;;;;;;21.39;21.82;98999.44;5013858;28;1902;-71
2024/02/01 04:55:13;;;;;;;;;;;;;;;21.56;21.68;99001.31;5014185;28;1058;-71
2024/02/01 04:57:38;;;;;;;;;;;;;;;21.31;21.95;99004.38;4997838;28;1241;-72
2024/02/01 05:00:13;;;;;;;;;;;;;;;21.21;22.04;99000.41;4997499;28;949;-72
2024/02/01 05:02:41;;;;;;;;;;;;;;;21.24;22.12;98999.56;4998076;28;1022;-71
2024/02/01 05:05:10;;;;;;;;;;;;;;;21.53;21.62;98987.97;4997100;28;927;-72
2024/02/01 05:07:35;;;;;;;;;;;;;;;21.51;21.62;98985.59;4997203;28;998;-71
2024/02/01 05:10:01;;;;;;;;;;;;;;;21.60;21.64;98982.22;5013644;28;1002;-71
2024/02/01 05:12:26;;;;;;;;;;;;;;;21.74;21.27;98982.06;4996959;28;1969;-72
2024/02/01 05:14:52;;;;;;;;;;;;;;;21.20;21.95;98993.13;4996897;28;1627;-72
2024/02/01 05:17:17;;;;;;;;;;;;;;;21.12;22.13;98991.59;5013787;28;1045;-72
2024/02/01 05:19:43;;;;;;;;;;;;;;;21.30;21.95;98991.47;5027666;28;1397;-71
2024/02/01 05:22:08;;;;;;;;;;;;;;;21.43;21.74;98983.22;5034680;28;936;-72
2024/02/01 05:24:34;;;;;;;;;;;;;;;21.32;21.86;98977.69;5020290;28;1148;-72
2024/02/01 05:27:07;;;;;;;;;;;;;;;21.22;22.12;98985.03;5037638;28;1642;-72
2024/02/01 05:29:33;;;;;;;;;;;;;;;21.40;22.10;98982.06;5037756;28;1016;-72
2024/02/01 05:31:59;;;;;;;;;;;;;;;21.20;21.66;98933.69;5055536;28;906;-71
2024/02/01 05:34:24;;;;;;;;;;;;;;;21.26;22.17;98980.13;5020016;28;1922;-72
2024/02/01 05:36:50;;;;;;;;;;;;;;;21.18;22.11;98986.28;5037265;28;1103;-72
2024/02/01 05:39:25;;;;;;;;;;;;;;;21.40;21.81;98979.22;5054282;28;899;-72
2024/02/01 05:41:52;;;;;;;;;;;;;;;21.37;21.92;98976.44;5032674;28;1056;-72
2024/02/01 05:44:18;;;;;;;;;;;;;;;21.36;21.93;98972.00;5017053;28;939;-72
2024/02/01 05:46:50;;;;;;;;;;;;;;;21.43;21.92;98971.91;5033278;28;1033;-73
2024/02/01 05:49:18;;;;;;;;;;;;;;;21.43;21.86;98971.91;5027268;28;1899;-73
2024/02/01 05:51:45;;;;;;;;;;;;;;;21.18;22.27;98961.59;5036562;28;1009;-72
2024/02/01 05:54:10;;;;;;;;;;;;;;;21.04;22.36;98968.22;5020350;28;1910;-72
2024/02/01 05:56:36;;;;;;;;;;;;;;;21.36;22.11;98964.31;5036959;28;971;-73
2024/02/01 05:59:01;;;;;;;;;;;;;;;21.22;22.31;98982.19;5036877;28;973;-73
2024/02/01 06:01:27;;;;;;;;;;;;;;;20.98;22.36;98972.69;5000068;28;1319;-73
2024/02/01 06:03:52;;;;;;;;;;;;;;;21.39;22.13;98976.81;5016868;28;998;-72
2024/02/01 06:06:18;;;;;;;;;;;;;;;21.37;22.04;98970.75;5000366;28;1007;-72
2024/02/01 06:08:43;;;;;;;;;;;;;;;21.31;21.90;98970.41;5000297;28;1186;-72
2024/02/01 06:11:09;;;;;;;;;;;;;;;21.22;22.27;98965.22;5016830;28;952;-74
2024/02/01 06:13:35;;;;;;;;;;;;;;;21.32;21.88;98966.38;5016313;28;1930;-74
2024/02/01 06:16:00;;;;;;;;;;;;;;;21.40;22.00;98972.75;5036546;28;1018;-74
2024/02/01 06:18:25;;;;;;;;;;;;;;;21.39;21.82;98959.81;5020372;28;1011;-73
2024/02/01 06:20:51;;;;;;;;;;;;;;;21.13;22.18;98969.75;5035968;28;964;-73
2024/02/01 06:23:16;;;;;;;;;;;;;;;21.43;21.87;98966.25;5036618;28;968;-74
2024/02/01 06:25:43;;;;;;;;;;;;;;;21.27;22.16;98969.63;5036345;28;1201;-74
2024/02/01 06:28:10;;;;;;;;;;;;;;;21.23;22.05;98968.84;5020065;28;960;-73
2024/02/01 06:30:37;;;;;;;;;;;;;;;21.32;22.02;98972.03;5036238;28;1086;-73
2024/02/01 06:33:02;;;;;;;;;;;;;;;21.25;22.09;98967.22;4980278;28;1915;-74
2024/02/01 06:35:28;;;;;;;;;;;;;;;21.35;21.95;98964.69;4980556;28;1010;-74
2024/02/01 06:38:04;;;;;;;;;;;;;;;21.38;22.06;98963.88;4980502;28;1022;-74
2024/02/01 06:40:48;;;;;;;;;;;;;;;21.30;22.09;98952.63;4981984;28;1110;-74
2024/02/01 06:43:27;;;;;;;;;;;;;;;21.52;21.74;98956.03;4997018;28;940;-73
2024/02/01 06:46:18;;;;;;;;;;;;;;;21.44;21.89;98959.34;4981822;28;1036;-73
2024/02/01 06:48:46;;;;;;;;;;;;;;;21.37;21.80;98962.28;4983601;28;1122;-74
2024/02/01 06:51:21;;;;;;;;;;;;;;;21.09;22.57;98958.47;4980324;28;928;-73
2024/02/01 06:53:56;;;;;;;;;;;;;;;21.08;22.33;98951.19;4981460;28;1993;-73
2024/02/01 06:56:44;;;;;;;;;;;;;;;21.17;22.11;98953.53;4981002;28;953;-73
2024/02/01 06:59:30;;;;;;;;;;;;;;;21.59;21.82;98952.31;4989023;28;1647;-74
2024/02/01 07:04:49;;;;;;;;;;;;;;;21.75;21.42;98946.84;5008569;28;947;-74
2024/02/01 07:07:18;;;;;;;;;;;;;;;21.48;21.68;98941.09;5021489;28;1153;-73
2024/02/01 07:09:57;;;;;;;;;;;;;;;20.99;22.35;98942.41;5037960;28;1051;-73
2024/02/01 07:17:59;;;;;;;;;;;;;;;21.47;21.76;98928.19;4942533;29;989;-74
2024/02/01 07:20:46;;;;;;;;;;;;;;;21.39;21.88;98920.19;4941018;29;1064;-73
2024/02/01 07:25:49;;;;;;;;;;;;;;;21.39;22.18;98925.84;4957109;29;1263;-73
2024/02/01 07:58:37;;;;;;;;;;;;;;;21.60;21.91;98902.94;4962083;28;1007;-74
2024/02/01 08:01:13;;;;;;;;;;;;;;;21.48;21.76;98906.31;4944271;28;1026;-73
2024/02/01 08:03:56;;;;;;;;;;;;;;;21.36;21.94;98898.38;4960950;28;1003;-74
2024/02/01 08:09:11;;;;;;;;;;;;;;;22.40;20.83;98886.47;5025920;28;1263;-72
2024/02/01 08:11:41;;;;;;;;;;;;;;;22.31;20.63;98887.81;5023039;28;1068;-73
2024/02/01 08:14:10;;;;;;;;;;;;;;;21.61;21.66;98881.09;5039957;28;1913;-74
2024/02/01 08:16:36;;;;;;;;;;;;;;;21.17;22.40;98875.09;5023117;28;1083;-73
2024/02/01 08:19:01;;;;;;;;;;;;;;;21.35;21.87;98879.78;5057372;28;1079;-73
2024/02/01 08:21:32;;;;;;;;;;;;;;;21.28;22.02;98875.78;5022721;28;978;-73
2024/02/01 08:23:57;;;;;;;;;;;;;;;21.59;21.52;98867.34;5039557;28;1200;-73
2024/02/01 08:26:23;;;;;;;;;;;;;;;21.55;21.70;98863.75;5057488;28;942;-74
2024/02/01 08:28:48;;;;;;;;;;;;;;;21.64;21.47;98855.56;5057466;28;1037;-73
2024/02/01 08:31:17;;;;;;;;;;;;;;;21.51;21.54;98851.69;5039280;28;1758;-73
2024/02/01 08:33:44;;;;;;;;;;;;;;;21.43;21.81;98855.81;5039297;28;1914;-73
2024/02/01 08:36:13;;;;;;;;;;;;;;;21.17;22.05;98855.28;5057150;28;960;-73
2024/02/01 08:38:39;;;;;;;;;;;;;;;21.19;22.13;98849.19;5022861;28;1319;-74
2024/02/01 08:41:05;;;;;;;;;;;;;;;21.35;21.76;98851.47;5038995;28;1012;-74
2024/02/01 08:43:30;;;;;;;;;;;;;;;21.35;21.93;98845.81;5014611;28;1029;-73
2024/02/01 08:45:56;;;;;;;;;;;;;;;21.36;21.78;98853.09;4982465;28;1131;-73
2024/02/01 08:48:24;;;;;;;;;;;;;;;21.36;22.05;98853.09;5014580;28;969;-75
2024/02/01 08:50:52;;;;;;;;;;;;;;;21.30;21.80;98847.09;5015118;28;1004;-74
2024/02/01 08:53:22;;;;;;;;;;;;;;;21.67;21.37;98840.56;5014881;28;1906;-74
2024/02/01 08:55:52;;;;;;;;;;;;;;;21.32;21.87;98830.47;4998646;28;1097;-74
2024/02/01 08:58:17;;;;;;;;;;;;;;;21.09;22.01;98842.47;4999191;28;1056;-73
2024/02/01 09:00:43;;;;;;;;;;;;;;;21.24;21.90;98832.59;5015043;28;989;-74
2024/02/01 09:03:20;;;;;;;;;;;;;;;21.56;21.54;98834.22;5015104;28;977;-74
2024/02/01 09:05:47;;;;;;;;;;;;;;;21.51;21.82;98834.69;4983948;28;1306;-74
2024/02/01 09:08:16;;;;;;;;;;;;;;;21.64;21.40;98830.06;4994892;28;1094;-74
2024/02/01 09:10:57;;;;;;;;;;;;;;;21.38;21.75;98830.81;4963035;28;1044;-73
2024/02/01 09:13:23;;;;;;;;;;;;;;;21.25;22.05;98825.69;4965354;28;1902;-73
2024/02/01 09:15:48;;;;;;;;;;;;;;;21.45;21.56;98825.88;4998510;28;973;-73
2024/02/01 09:18:15;;;;;;;;;;;;;;;21.55;21.60;98826.94;4978689;28;964;-74
2024/02/01 09:20:41;;;;;;;;;;;;;;;21.60;21.48;98820.81;4994935;28;1181;-73
2024/02/01 09:23:07;;;;;;;;;;;;;;;21.26;22.03;98824.47;4975467;28;1149;-74
2024/02/01 09:25:33;;;;;;;;;;;;;;;21.03;22.08;98827.94;4958778;28;1065;-73
2024/02/01 09:28:00;;;;;;;;;;;;;;;20.99;22.29;98824.38;4959528;28;962;-73
2024/02/01 09:30:27;;;;;;;;;;;;;;;21.37;21.84;98821.53;4959446;28;921;-74
2024/02/01 09:32:56;;;;;;;;;;;;;;;21.55;21.46;98824.09;4943678;28;1910;-74
2024/02/01 09:35:22;;;;;;;;;;;;;;;21.26;21.89;98813.13;4975309;28;1503;-74
2024/02/01 09:37:54;;;;;;;;;;;;;;;21.64;21.63;98807.41;4975561;28;1018;-73
2024/02/01 09:40:22;;;;;;;;;;;;;;;21.35;21.59;98800.50;4975330;28;992;-72
2024/02/01 09:42:51;;;;;;;;;;;;;;;21.27;21.81;98796.94;4975229;28;1008;-72
2024/02/01 09:45:18;;;;;;;;;;;;;;;21.19;21.91;98790.59;4989050;28;1045;-73
2024/02/01 09:47:43;;;;;;;;;;;;;;;21.35;21.95;98783.53;4998439;28;974;-72
2024/02/01 09:50:13;;;;;;;;;;;;;;;21.53;21.41;98784.91;5015233;28;933;-72
2024/02/01 09:52:39;;;;;;;;;;;;;;;21.35;21.67;98772.19;4974881;28;1970;-72
2024/02/01 09:55:07;;;;;;;;;;;;;;;21.16;22.10;98768.78;4975207;28;978;-72
2024/02/01 09:57:40;;;;;;;;;;;;;;;21.42;21.66;98766.47;4955793;29;985;-72
2024/02/01 10:00:10;;;;;;;;;;;;;;;21.68;21.37;98760.00;4925120;29;922;-72
2024/02/01 10:02:39;;;;;;;;;;;;;;;21.46;21.50;98744.56;4955769;29;1480;-73
2024/02/01 10:05:05;;;;;;;;;;;;;;;21.33;21.66;98735.84;4956149;29;997;-72
2024/02/01 10:07:30;;;;;;;;;;;;;;;21.41;21.61;98742.22;4939991;29;1293;-72
2024/02/01 10:09:56;;;;;;;;;;;;;;;21.38;21.52;98731.72;4955719;29;960;-72
2024/02/01 10:12:25;;;;;;;;;;;;;;;21.37;21.73;98730.94;4955824;29;1899;-73
2024/02/01 10:14:51;;;;;;;;;;;;;;;21.16;21.79;98726.34;4956010;29;1181;-72
2024/02/01 10:17:17;;;;;;;;;;;;;;;21.20;21.80;98724.25;4955650;29;918;-72
2024/02/01 10:19:49;;;;;;;;;;;;;;;21.50;21.51;98722.66;4956047;29;965;-72
2024/02/01 10:22:15;;;;;;;;;;;;;;;21.57;21.30;98712.03;4955990;29;1041;-72
2024/02/01 10:24:51;;;;;;;;;;;;;;;21.49;21.49;98704.84;4953254;29;938;-73
2024/02/01 10:27:19;;;;;;;;;;;;;;;21.46;21.48;98707.75;4955807;29;930;-73
2024/02/01 10:29:45;;;;;;;;;;;;;;;21.30;21.94;98703.53;4978695;28;1043;-72
2024/02/01 10:32:14;;;;;;;;;;;;;;;21.43;21.40;98706.56;4961898;28;1003;-72
2024/02/01 10:34:50;;;;;;;;;;;;;;;21.35;21.63;98692.94;4994127;28;1968;-73
2024/02/01 10:37:16;;;;;;;;;;;;;;;21.24;21.67;98696.72;4995323;28;957;-72
2024/02/01 10:39:45;;;;;;;;;;;;;;;21.28;21.88;98700.28;4998019;28;1043;-73
2024/02/01 10:42:11;;;;;;;;;;;;;;;21.39;21.53;98690.88;4997973;28;986;-73
2024/02/01 10:44:38;;;;;;;;;;;;;;;21.36;21.44;98692.53;4981606;28;971;-73
2024/02/01 10:47:12;;;;;;;;;;;;;;;21.17;21.66;98693.16;4997537;28;1165;-73
2024/02/01 10:49:38;;;;;;;;;;;;;;;21.04;21.81;98690.13;4997257;28;928;-72
2024/02/01 10:52:03;;;;;;;;;;;;;;;21.45;21.29;98687.16;4997841;28;911;-73
2024/02/01 10:54:29;;;;;;;;;;;;;;;21.72;21.02;98678.63;4997610;28;1977;-73
2024/02/01 10:57:02;;;;;;;;;;;;;;;21.61;21.51;98686.50;5164621;22;3793;-75
2024/02/01 10:59:27;;;;;;;;;;;;;;;22.59;19.96;98673.03;5041136;28;868;-74
2024/02/01 11:01:53;;;;;;;;;;;;;;;22.28;20.57;98681.72;5041191;28;1011;-74
2024/02/01 11:04:19;;;;;;;;;;;;;;;21.71;21.10;98668.53;5041515;28;983;-75
2024/02/01 11:06:48;;;;;;;;;;;;;;;21.38;21.62;98660.97;5040918;28;888;-75
2024/02/01 11:09:22;;;;;;;;;;;;;;;21.58;21.19;98661.84;5040897;28;944;-75
2024/02/01 11:11:48;;;;;;;;;;;;;;;21.61;21.22;98660.22;5058429;28;998;-74
2024/02/01 11:14:15;;;;;;;;;;;;;;;21.60;21.21;98648.06;5024296;28;1914;-75
2024/02/01 11:16:41;;;;;;;;;;;;;;;21.67;21.05;98639.47;5007970;28;939;-75
2024/02/01 11:19:10;;;;;;;;;;;;;;;21.44;21.35;98651.53;5024700;28;1041;-74
2024/02/01 11:21:36;;;;;;;;;;;;;;;21.36;21.82;98643.63;5040994;28;911;-75
2024/02/01 11:24:08;;;;;;;;;;;;;;;21.38;21.29;98646.81;5058337;28;957;-74
2024/02/01 11:26:40;;;;;;;;;;;;;;;21.56;21.34;98641.66;5016076;28;1087;-74
2024/02/01 11:29:09;;;;;;;;;;;;;;;21.46;21.38;98642.66;5001109;28;962;-74
2024/02/01 11:31:43;;;;;;;;;;;;;;;21.43;21.62;98632.16;4984104;28;1014;-75
2024/02/01 11:34:08;;;;;;;;;;;;;;;21.50;21.36;98626.38;5016584;28;1981;-74
2024/02/01 11:36:34;;;;;;;;;;;;;;;21.44;21.46;98628.91;5016507;28;999;-75
2024/02/01 11:39:02;;;;;;;;;;;;;;;21.81;21.05;98627.91;4999909;28;898;-74
2024/02/01 11:41:28;;;;;;;;;;;;;;;21.40;21.59;98616.84;5000113;28;1035;-74
2024/02/01 11:43:53;;;;;;;;;;;;;;;21.33;21.56;98605.63;4999833;28;957;-74
2024/02/01 11:46:19;;;;;;;;;;;;;;;21.51;21.43;98611.00;4983367;28;987;-75
2024/02/01 11:48:44;;;;;;;;;;;;;;;21.56;21.46;98613.34;4999452;28;1151;-76
2024/02/01 11:51:10;;;;;;;;;;;;;;;21.59;21.24;98596.28;4999814;28;1021;-76
2024/02/01 11:53:36;;;;;;;;;;;;;;;21.36;21.81;98598.31;4999744;28;1977;-75
2024/02/01 11:56:05;;;;;;;;;;;;;;;21.38;21.58;98595.84;4983689;28;1117;-76
2024/02/01 11:58:31;;;;;;;;;;;;;;;21.61;21.37;98587.38;5020084;28;1224;-76
2024/02/01 12:00:57;;;;;;;;;;;;;;;21.38;21.58;98584.53;5039951;28;977;-77
2024/02/01 12:03:23;;;;;;;;;;;;;;;21.10;22.01;98577.28;5039753;28;1218;-75
2024/02/01 12:05:49;;;;;;;;;;;;;;;21.11;22.21;98582.50;5023530;28;1095;-76
2024/02/01 12:08:14;;;;;;;;;;;;;;;21.36;21.89;98570.00;5023237;28;1304;-75
2024/02/01 12:10:45;;;;;;;;;;;;;;;21.60;21.35;98568.75;5057291;28;943;-75
2024/02/01 12:13:13;;;;;;;;;;;;;;;21.57;21.62;98564.78;5023891;28;1918;-76
2024/02/01 12:15:45;;;;;;;;;;;;;;;21.75;21.28;98558.78;5040010;28;1125;-75
2024/02/01 12:18:12;;;;;;;;;;;;;;;21.36;21.62;98564.34;5022844;28;1094;-75
2024/02/01 12:20:41;;;;;;;;;;;;;;;21.21;21.80;98570.22;5039397;28;1288;-75
2024/02/01 12:23:06;;;;;;;;;;;;;;;21.28;21.77;98561.59;5023307;28;1050;-75
2024/02/01 12:25:32;;;;;;;;;;;;;;;21.54;21.51;98564.81;5015093;28;947;-74
2024/02/01 12:27:58;;;;;;;;;;;;;;;21.51;21.55;98554.38;4999330;28;1135;-75
2024/02/01 12:30:27;;;;;;;;;;;;;;;21.40;21.74;98565.06;4982517;28;1022;-75
2024/02/01 12:32:53;;;;;;;;;;;;;;;21.23;21.93;98556.41;5015077;28;1906;-75
2024/02/01 12:35:18;;;;;;;;;;;;;;;21.47;21.58;98542.31;5015141;28;1032;-75
2024/02/01 12:37:44;;;;;;;;;;;;;;;21.43;21.62;98547.22;4998821;28;1092;-75
2024/02/01 12:40:11;;;;;;;;;;;;;;;21.22;22.05;98542.69;4998965;28;975;-75
2024/02/01 12:42:38;;;;;;;;;;;;;;;21.15;22.14;98542.84;4998956;28;944;-75
2024/02/01 12:45:04;;;;;;;;;;;;;;;21.63;21.64;98548.09;4979242;28;1575;-75
2024/02/01 12:47:33;;;;;;;;;;;;;;;21.31;21.79;98540.97;4979181;28;1015;-75
2024/02/01 12:49:59;;;;;;;;;;;;;;;21.52;21.51;98539.00;4995369;28;1005;-75
2024/02/01 12:52:25;;;;;;;;;;;;;;;21.40;21.73;98537.59;4995391;28;1911;-75
2024/02/01 12:54:51;;;;;;;;;;;;;;;21.47;21.76;98534.63;4956085;29;983;-75
2024/02/01 12:57:21;;;;;;;;;;;;;;;21.63;21.45;98533.94;4975100;28;1116;-75
2024/02/01 12:59:47;;;;;;;;;;;;;;;21.64;21.45;98541.19;4978611;28;1544;-75
2024/02/01 13:02:12;;;;;;;;;;;;;;;21.92;21.30;98539.06;4995325;28;949;-75
2024/02/01 13:04:39;;;;;;;;;;;;;;;21.89;21.11;98534.25;4995564;28;1066;-75
2024/02/01 13:07:11;;;;;;;;;;;;;;;21.67;21.39;98531.84;4995438;28;984;-76
2024/02/01 13:09:38;;;;;;;;;;;;;;;21.55;21.44;98532.44;4995121;28;1046;-75
2024/02/01 13:12:18;;;;;;;;;;;;;;;21.41;21.65;98532.72;4995339;28;1071;-75
2024/02/01 13:14:57;;;;;;;;;;;;;;;21.64;21.50;98529.84;4994779;28;1906;-75
2024/02/01 13:17:24;;;;;;;;;;;;;;;21.50;21.59;98525.28;5014813;28;1089;-75
2024/02/01 13:19:50;;;;;;;;;;;;;;;21.36;21.81;98524.72;4975134;28;1090;-75
2024/02/01 13:22:15;;;;;;;;;;;;;;;21.31;21.97;98523.19;4959403;28;949;-76
2024/02/01 13:24:45;;;;;;;;;;;;;;;21.65;21.41;98520.13;4960440;28;1033;-75
2024/02/01 13:27:11;;;;;;;;;;;;;;;21.59;21.35;98521.84;5014439;28;956;-75
2024/02/01 13:29:37;;;;;;;;;;;;;;;21.40;21.79;98519.78;5014562;28;936;-75
2024/02/01 13:32:08;;;;;;;;;;;;;;;21.12;22.06;98512.56;5014550;28;1163;-75
2024/02/01 13:34:39;;;;;;;;;;;;;;;21.32;21.79;98514.25;4997729;28;1977;-75
2024/02/01 13:37:08;;;;;;;;;;;;;;;21.71;21.55;98515.59;5014254;28;1004;-75
2024/02/01 13:39:33;;;;;;;;;;;;;;;21.77;21.54;98507.38;5014270;28;1078;-75
2024/02/01 13:42:08;;;;;;;;;;;;;;;21.35;22.12;98512.59;5014401;28;960;-75
2024/02/01 13:44:34;;;;;;;;;;;;;;;21.18;22.23;98508.78;5012611;28;1104;-75